Marco Polo — C6JZ7 — position and weather

sailwx.info

Track history (hours):
 
Tides and Currents Weather Stations Pressure Air Temp Water Temp Dewpoint Dewpoint Depression Visibility Wind Speed Wind Dir Waves Ship Positions

Marco Polo

Operator: Orient Lines

Last reported at 2015-Jan-11 15:16 UTC. Time now 2015-Jan-26 02:27 UTC.
Position N 35°07' W 013°44'.
Warning: this ship's position is 14 days out of date.

Type: Ship. MMSI: 308691456.

Date/timePositionNaut miles runAvg speedWind from/ knotsBaromVisibWave heightAir tempDewpointWater temp
2015-Jan-11 15:16N 35°07' W 013°44'8016.3
2015-Jan-11 10:22N 36°03' W 012°34'1416.8
2015-Jan-11 09:33N 36°13' W 012°22'7516.8
2015-Jan-11 05:07N 37°07' W 011°17'4316.7
2015-Jan-11 02:32N 37°37' W 010°39'1616.3
2015-Jan-11 01:33N 37°48' W 010°24'1515.1
2015-Jan-11 00:33N 37°59' W 010°11'1515.0
2015-Jan-10 23:33N 38°09' W 009°57'1515.1
2015-Jan-10 22:33N 38°20' W 009°44'1515.4
2015-Jan-10 21:34N 38°31' W 009°30'1515.4
2015-Jan-10 20:33N 38°41' W 009°15'6 5.9
2015-Jan-10 19:30N 38°43' W 009°07'0 0.0
2015-Jan-10 18:29N 38°43' W 009°07'0 0.0
2015-Jan-10 17:29N 38°43' W 009°07'0 0.0
2015-Jan-10 16:10N 38°43' W 009°07'0 0.0
2015-Jan-10 15:31N 38°43' W 009°07'0 0.0
2015-Jan-10 14:31N 38°43' W 009°07'0 0.0
2015-Jan-10 13:27N 38°43' W 009°07'0 0.0
2015-Jan-10 12:33N 38°43' W 009°07'0 0.0
2015-Jan-10 11:33N 38°43' W 009°07'0 0.0
2015-Jan-10 10:33N 38°43' W 009°07'0 0.0
2015-Jan-10 09:33N 38°43' W 009°07'0 0.0
2015-Jan-10 08:32N 38°43' W 009°07'0 0.0
2015-Jan-10 07:33N 38°43' W 009°07'0 0.2
2015-Jan-10 06:33N 38°42' W 009°08'7 7.0
2015-Jan-10 05:33N 38°41' W 009°16'9 8.8
2015-Jan-10 04:33N 38°36' W 009°25'9 9.0
2015-Jan-10 03:33N 38°39' W 009°36'8 7.8
2015-Jan-10 02:33N 38°44' W 009°43'1110.2
2015-Jan-10 01:31N 38°55' W 009°44'1010.6
2015-Jan-10 00:33N 39°05' W 009°45'  
2015-Jan-07 11:33N 50°35' E 000°28'1312.9
2015-Jan-07 10:33N 50°41' E 000°46'3415.1
2015-Jan-07 08:18N 51°03' E 001°27'1317.7
2015-Jan-07 07:34N 51°12' E 001°42'1615.7
2015-Jan-07 06:33N 51°25' E 001°55'1514.5
2015-Jan-07 05:33N 51°37' E 002°11'8413.6
2015-Jan-06 23:22N 52°30' E 003°56'1215.0
2015-Jan-06 22:33N 52°30' E 004°17'1010.4
2015-Jan-06 21:34N 52°28' E 004°33'4 3.9
2015-Jan-06 20:33N 52°28' E 004°40'4 4.4
2015-Jan-06 19:34N 52°26' E 004°46'6 5.7
2015-Jan-06 18:34N 52°23' E 004°54'1 0.6
2015-Jan-06 17:33N 52°23' E 004°55'0 0.0
2015-Jan-06 16:33N 52°23' E 004°55'0 0.0
2015-Jan-06 15:29N 52°23' E 004°55'0 0.0
2015-Jan-06 14:32N 52°23' E 004°55'0 0.0
2015-Jan-06 13:33N 52°23' E 004°55'0 0.0
2015-Jan-06 12:33N 52°23' E 004°55'1 1.4
2015-Jan-06 11:34N 52°24' E 004°54'9 8.5
2015-Jan-06 10:33N 52°27' E 004°41'4 3.8
2015-Jan-06 09:33N 52°28' E 004°35'6 5.6
2015-Jan-06 08:33N 52°29' E 004°25'1312.8
2015-Jan-06 07:34N 52°28' E 004°05'3514.7
2015-Jan-06 05:09N 52°18' E 003°09'4616.5
2015-Jan-06 02:21N 51°52' E 002°06'1316.3
2015-Jan-06 01:34N 51°45' E 001°49'1515.2
2015-Jan-06 00:33N 51°31' E 001°38'1211.7
2015-Jan-05 23:33N 51°29' E 001°20'1313.0
2015-Jan-05 22:33N 51°29' E 000°59'1413.6
2015-Jan-05 21:33N 51°30' E 000°37'10 9.8
2015-Jan-05 20:34N 51°27' E 000°22'0 0.2
2015-Jan-05 19:34N 51°27' E 000°22'0 0.0
2015-Jan-05 18:33N 51°27' E 000°22'0 0.0
2015-Jan-05 17:33N 51°27' E 000°22'0 0.0
2015-Jan-05 16:33N 51°27' E 000°22'0 0.0
2015-Jan-05 15:33N 51°27' E 000°22'0 0.0
2015-Jan-05 14:33N 51°27' E 000°22'0 0.0
2015-Jan-05 13:34N 51°27' E 000°22'4 4.4
2015-Jan-05 12:34N 51°29' E 000°28'1211.6
2015-Jan-05 11:33N 51°29' E 000°47'1212.3
2015-Jan-05 10:33N 51°30' E 001°06'1413.7
2015-Jan-05 09:33N 51°28' E 001°28'1212.5
2015-Jan-05 08:33N 51°17' E 001°38'1313.0
2015-Jan-05 07:34N 51°04' E 001°36'3514.2
2015-Jan-05 05:05N 50°34' E 001°06'  
2015-Jan-02 20:15N 38°49' W 009°50'1115.8
2015-Jan-02 19:33N 38°38' W 009°48'1716.5
2015-Jan-02 18:33N 38°37' W 009°27'1414.4
2015-Jan-02 17:33N 38°42' W 009°10'2 2.1
2015-Jan-02 16:32N 38°43' W 009°07'0 0.0
2015-Jan-02 15:34N 38°43' W 009°07'0 0.0
2015-Jan-02 14:34N 38°43' W 009°07'0 0.0
2015-Jan-02 13:34N 38°43' W 009°07'0 0.0
2015-Jan-02 12:34N 38°43' W 009°07'0 0.0
2015-Jan-02 11:34N 38°43' W 009°07'0 0.0
2015-Jan-02 10:34N 38°43' W 009°07'0 0.1
2015-Jan-02 09:34N 38°43' W 009°07'8 7.5
2015-Jan-02 08:33N 38°41' W 009°17'1212.3
2015-Jan-02 07:33N 38°33' W 009°28'1414.3
2015-Jan-02 06:33N 38°23' W 009°41'1514.6
2015-Jan-02 05:33N 38°12' W 009°54'1615.5
2015-Jan-02 04:32N 38°01' W 010°08'2216.4
2015-Jan-02 03:10N 37°45' W 010°28'1716.6
2015-Jan-02 02:10N 37°33' W 010°43'1016.5
2015-Jan-02 01:33N 37°26' W 010°52'8316.4
2015-Jan-01 20:29N 36°27' W 012°05'3216.5
2015-Jan-01 18:33N 36°04' W 012°33'  
Track history (hours):
 
Tides and Currents Weather Stations Pressure Air Temp Water Temp Dewpoint Dewpoint Depression Visibility Wind Speed Wind Dir Waves Ship Positions

Marco Polo

Operator: Orient Lines

Last reported at 2015-Jan-11 15:16 UTC. Time now 2015-Jan-26 02:27 UTC.
Position N 35°07' W 013°44'.
Warning: this ship's position is 14 days out of date.

Type: Ship. MMSI: 308691456.

Date/timePositionNaut miles runAvg speedWind from/ knotsBaromVisibWave heightAir tempDewpointWater temp
2015-Jan-11 15:16N 35°07' W 013°44'8016.3
2015-Jan-11 10:22N 36°03' W 012°34'1416.8
2015-Jan-11 09:33N 36°13' W 012°22'7516.8
2015-Jan-11 05:07N 37°07' W 011°17'4316.7
2015-Jan-11 02:32N 37°37' W 010°39'1616.3
2015-Jan-11 01:33N 37°48' W 010°24'1515.1
2015-Jan-11 00:33N 37°59' W 010°11'1515.0
2015-Jan-10 23:33N 38°09' W 009°57'1515.1
2015-Jan-10 22:33N 38°20' W 009°44'1515.4
2015-Jan-10 21:34N 38°31' W 009°30'1515.4
2015-Jan-10 20:33N 38°41' W 009°15'6 5.9
2015-Jan-10 19:30N 38°43' W 009°07'0 0.0
2015-Jan-10 18:29N 38°43' W 009°07'0 0.0
2015-Jan-10 17:29N 38°43' W 009°07'0 0.0
2015-Jan-10 16:10N 38°43' W 009°07'0 0.0
2015-Jan-10 15:31N 38°43' W 009°07'0 0.0
2015-Jan-10 14:31N 38°43' W 009°07'0 0.0
2015-Jan-10 13:27N 38°43' W 009°07'0 0.0
2015-Jan-10 12:33N 38°43' W 009°07'0 0.0
2015-Jan-10 11:33N 38°43' W 009°07'0 0.0
2015-Jan-10 10:33N 38°43' W 009°07'0 0.0
2015-Jan-10 09:33N 38°43' W 009°07'0 0.0
2015-Jan-10 08:32N 38°43' W 009°07'0 0.0
2015-Jan-10 07:33N 38°43' W 009°07'0 0.2
2015-Jan-10 06:33N 38°42' W 009°08'7 7.0
2015-Jan-10 05:33N 38°41' W 009°16'9 8.8
2015-Jan-10 04:33N 38°36' W 009°25'9 9.0
2015-Jan-10 03:33N 38°39' W 009°36'8 7.8
2015-Jan-10 02:33N 38°44' W 009°43'1110.2
2015-Jan-10 01:31N 38°55' W 009°44'1010.6
2015-Jan-10 00:33N 39°05' W 009°45'  
2015-Jan-07 11:33N 50°35' E 000°28'1312.9
2015-Jan-07 10:33N 50°41' E 000°46'3415.1
2015-Jan-07 08:18N 51°03' E 001°27'1317.7
2015-Jan-07 07:34N 51°12' E 001°42'1615.7
2015-Jan-07 06:33N 51°25' E 001°55'1514.5
2015-Jan-07 05:33N 51°37' E 002°11'8413.6
2015-Jan-06 23:22N 52°30' E 003°56'1215.0
2015-Jan-06 22:33N 52°30' E 004°17'1010.4
2015-Jan-06 21:34N 52°28' E 004°33'4 3.9
2015-Jan-06 20:33N 52°28' E 004°40'4 4.4
2015-Jan-06 19:34N 52°26' E 004°46'6 5.7
2015-Jan-06 18:34N 52°23' E 004°54'1 0.6
2015-Jan-06 17:33N 52°23' E 004°55'0 0.0
2015-Jan-06 16:33N 52°23' E 004°55'0 0.0
2015-Jan-06 15:29N 52°23' E 004°55'0 0.0
2015-Jan-06 14:32N 52°23' E 004°55'0 0.0
2015-Jan-06 13:33N 52°23' E 004°55'0 0.0
2015-Jan-06 12:33N 52°23' E 004°55'1 1.4
2015-Jan-06 11:34N 52°24' E 004°54'9 8.5
2015-Jan-06 10:33N 52°27' E 004°41'4 3.8
2015-Jan-06 09:33N 52°28' E 004°35'6 5.6
2015-Jan-06 08:33N 52°29' E 004°25'1312.8
2015-Jan-06 07:34N 52°28' E 004°05'3514.7
2015-Jan-06 05:09N 52°18' E 003°09'4616.5
2015-Jan-06 02:21N 51°52' E 002°06'1316.3
2015-Jan-06 01:34N 51°45' E 001°49'1515.2
2015-Jan-06 00:33N 51°31' E 001°38'1211.7
2015-Jan-05 23:33N 51°29' E 001°20'1313.0
2015-Jan-05 22:33N 51°29' E 000°59'1413.6
2015-Jan-05 21:33N 51°30' E 000°37'10 9.8
2015-Jan-05 20:34N 51°27' E 000°22'0 0.2
2015-Jan-05 19:34N 51°27' E 000°22'0 0.0
2015-Jan-05 18:33N 51°27' E 000°22'0 0.0
2015-Jan-05 17:33N 51°27' E 000°22'0 0.0
2015-Jan-05 16:33N 51°27' E 000°22'0 0.0
2015-Jan-05 15:33N 51°27' E 000°22'0 0.0
2015-Jan-05 14:33N 51°27' E 000°22'0 0.0
2015-Jan-05 13:34N 51°27' E 000°22'4 4.4
2015-Jan-05 12:34N 51°29' E 000°28'1211.6
2015-Jan-05 11:33N 51°29' E 000°47'1212.3
2015-Jan-05 10:33N 51°30' E 001°06'1413.7
2015-Jan-05 09:33N 51°28' E 001°28'1212.5
2015-Jan-05 08:33N 51°17' E 001°38'1313.0
2015-Jan-05 07:34N 51°04' E 001°36'3514.2
2015-Jan-05 05:05N 50°34' E 001°06'  
2015-Jan-02 20:15N 38°49' W 009°50'1115.8
2015-Jan-02 19:33N 38°38' W 009°48'1716.5
2015-Jan-02 18:33N 38°37' W 009°27'1414.4
2015-Jan-02 17:33N 38°42' W 009°10'2 2.1
2015-Jan-02 16:32N 38°43' W 009°07'0 0.0
2015-Jan-02 15:34N 38°43' W 009°07'0 0.0
2015-Jan-02 14:34N 38°43' W 009°07'0 0.0
2015-Jan-02 13:34N 38°43' W 009°07'0 0.0
2015-Jan-02 12:34N 38°43' W 009°07'0 0.0
2015-Jan-02 11:34N 38°43' W 009°07'0 0.0
2015-Jan-02 10:34N 38°43' W 009°07'0 0.1
2015-Jan-02 09:34N 38°43' W 009°07'8 7.5
2015-Jan-02 08:33N 38°41' W 009°17'1212.3
2015-Jan-02 07:33N 38°33' W 009°28'1414.3
2015-Jan-02 06:33N 38°23' W 009°41'1514.6
2015-Jan-02 05:33N 38°12' W 009°54'1615.5
2015-Jan-02 04:32N 38°01' W 010°08'2216.4
2015-Jan-02 03:10N 37°45' W 010°28'1716.6
2015-Jan-02 02:10N 37°33' W 010°43'1016.5
2015-Jan-02 01:33N 37°26' W 010°52'8316.4
2015-Jan-01 20:29N 36°27' W 012°05'3216.5
2015-Jan-01 18:33N 36°04' W 012°33'  

Dump ship's entire track history